Time;durP1;ratioP1;P1;durP2;ratioP2;P2;SDS_P1;SDS_P2;PMS_P1;PMS_P2;Temp;Humidity;BMP_temperature;BMP_pressure;BME280_temperature;BME280_humidity;BME280_pressure;Samples;Min_cycle;Max_cycle;Signal;HPM_P1;HPM_P2
2023/05/17 00:00:02;;;;;;;1.85;1.00;;;;;;;18.50;64.38;97488.13;2089512;28;20040;-49
2023/05/17 00:01:04;;;;;;;4.05;0.93;;;;;;;18.53;64.49;97496.53;2086377;28;20080;-45
2023/05/17 00:02:04;;;;;;;1.55;0.80;;;;;;;18.53;64.52;97493.84;2086463;28;21382;-46
2023/05/17 00:03:06;;;;;;;;;;;;;;;18.45;64.44;97493.38;2085852;28;20052;-46
2023/05/17 00:04:07;;;;;;;3.05;1.27;;;;;;;18.47;64.85;97499.31;2085888;28;19924;-48
2023/05/17 00:05:10;;;;;;;0.80;0.60;;;;;;;18.49;64.18;97503.41;2087525;28;20108;-46
2023/05/17 00:06:11;;;;;;;0.95;0.75;;;;;;;18.52;64.24;97502.13;2087669;28;20044;-51
2023/05/17 00:07:12;;;;;;;;;;;;;;;18.43;64.73;97503.50;2087639;28;20048;-45
2023/05/17 00:08:13;;;;;;;4.85;1.20;;;;;;;18.47;64.57;97499.31;2086449;28;19993;-48
2023/05/17 00:09:15;;;;;;;;;;;;;;;18.39;64.89;97503.16;2086984;28;20106;-47
2023/05/17 00:10:15;;;;;;;2.80;0.90;;;;;;;18.43;64.53;97490.09;2086965;28;19954;-47
2023/05/17 00:11:17;;;;;;;1.00;0.68;;;;;;;18.46;64.37;97506.56;2087028;28;20052;-48
2023/05/17 00:12:18;;;;;;;3.97;0.93;;;;;;;18.49;64.32;97499.91;2087088;28;20049;-46
2023/05/17 00:13:19;;;;;;;;;;;;;;;18.41;64.45;97501.06;2086634;28;20261;-45
2023/05/17 00:14:20;;;;;;;0.73;0.52;;;;;;;18.44;64.55;97494.41;2086342;28;19939;-46
2023/05/17 00:15:22;;;;;;;1.25;0.93;;;;;;;18.47;64.33;97497.47;2086995;28;20505;-46
2023/05/17 00:16:22;;;;;;;1.75;0.73;;;;;;;18.49;64.22;97491.84;2085811;28;20048;-47
2023/05/17 00:17:24;;;;;;;;;;;;;;;18.41;64.17;97493.00;2087849;28;20041;-47
2023/05/17 00:18:25;;;;;;;2.70;0.50;;;;;;;18.47;64.39;97496.63;2083914;28;19920;-47
2023/05/17 00:19:26;;;;;;;;;;;;;;;18.40;64.63;97491.38;2086994;28;20804;-46
2023/05/17 00:20:29;;;;;;;2.55;0.85;;;;;;;18.44;64.33;97494.41;2086201;28;19925;-48
2023/05/17 00:21:31;;;;;;;2.22;1.02;;;;;;;18.47;64.24;97494.78;2085786;28;20041;-48
2023/05/17 00:22:31;;;;;;;1.77;0.68;;;;;;;18.48;64.35;97498.28;2085644;28;20037;-48
2023/05/17 00:23:33;;;;;;;;;;;;;;;18.41;64.11;97500.22;2089861;28;20175;-46
2023/05/17 00:24:33;;;;;;;3.70;0.70;;;;;;;18.42;64.31;97491.97;2086354;28;19940;-47
2023/05/17 00:25:35;;;;;;;;;;;;;;;18.37;64.48;97494.50;2086725;28;20672;-48
2023/05/17 00:26:36;;;;;;;3.67;1.05;;;;;;;18.42;64.48;97493.84;2085252;28;20588;-46
2023/05/17 00:27:37;;;;;;;;;;;;;;;18.38;64.26;97500.69;2088258;28;20052;-45
2023/05/17 00:28:38;;;;;;;0.80;0.68;;;;;;;18.41;64.49;97497.56;2086055;28;19981;-48
2023/05/17 00:29:39;;;;;;;;;;;;;;;18.36;64.39;97492.88;2088065;28;20098;-47
2023/05/17 00:30:40;;;;;;;1.85;0.60;;;;;;;18.42;64.53;97501.88;2085680;28;19974;-48
2023/05/17 00:31:42;;;;;;;1.58;0.70;;;;;;;18.43;64.30;97498.97;2086995;28;20056;-49
2023/05/17 00:32:44;;;;;;;3.42;1.00;;;;;;;18.48;64.23;97498.28;2086667;28;20117;-46
2023/05/17 00:33:46;;;;;;;3.75;0.60;;;;;;;18.50;64.24;97491.63;2086121;28;20123;-49
2023/05/17 00:34:47;;;;;;;1.10;0.70;;;;;;;18.49;63.97;97495.34;2087000;28;20049;-46
2023/05/17 00:35:49;;;;;;;;;;;;;;;18.40;64.14;97502.09;2089405;28;20491;-46
2023/05/17 00:36:50;;;;;;;1.15;0.98;;;;;;;18.42;64.08;97494.66;2086987;28;20559;-46
2023/05/17 00:37:51;;;;;;;;;;;;;;;18.38;64.35;97500.69;2090209;28;20045;-47
2023/05/17 00:38:52;;;;;;;0.82;0.50;;;;;;;18.41;64.29;97503.72;2089037;28;19920;-47
2023/05/17 00:39:54;;;;;;;1.42;0.77;;;;;;;18.44;64.34;97492.56;2084585;28;21091;-49
2023/05/17 00:40:54;;;;;;;2.13;0.73;;;;;;;18.47;64.22;97502.00;2083641;28;20548;-47
2023/05/17 00:41:56;;;;;;;;;;;;;;;18.39;63.98;97500.47;2086399;28;20052;-47
2023/05/17 00:42:56;;;;;;;1.38;0.68;;;;;;;18.41;64.45;97503.72;2084419;28;19978;-46
2023/05/17 00:43:58;;;;;;;1.38;0.70;;;;;;;18.43;64.43;97498.16;2073279;28;20661;-48
2023/05/17 00:44:59;;;;;;;1.50;0.77;;;;;;;18.47;63.92;97494.78;2086211;28;20057;-48
2023/05/17 00:46:00;;;;;;;;;;;;;;;18.39;63.96;97505.84;2086896;28;20044;-48
2023/05/17 00:47:01;;;;;;;1.67;0.93;;;;;;;18.42;64.08;97499.22;2085988;28;20396;-46
2023/05/17 00:48:04;;;;;;;1.55;0.75;;;;;;;18.46;63.95;97495.81;2085413;28;20049;-48
2023/05/17 00:49:04;;;;;;;1.13;0.47;;;;;;;18.49;63.82;97499.91;2083904;28;20052;-49
2023/05/17 00:50:06;;;;;;;;;;;;;;;18.39;64.30;97495.13;2084420;28;20041;-48
2023/05/17 00:51:10;;;;;;;1.73;0.88;;;;;;;18.43;64.14;97493.59;2084049;28;19936;-45
2023/05/17 00:52:12;;;;;;;0.77;0.50;;;;;;;18.44;64.20;97492.56;2085240;28;20068;-48
2023/05/17 00:53:15;;;;;;;1.63;0.50;;;;;;;18.47;63.88;97497.47;2087711;28;20110;-47
2023/05/17 00:54:16;;;;;;;1.60;0.80;;;;;;;18.47;64.16;97504.69;2085610;28;20044;-46
2023/05/17 00:55:18;;;;;;;1.17;0.60;;;;;;;18.48;63.85;97501.78;2088874;28;20044;-47
2023/05/17 00:56:20;;;;;;;0.60;0.60;;;;;;;18.47;63.70;97494.78;2086827;28;22109;-48
2023/05/17 00:57:21;;;;;;;1.17;0.95;;;;;;;18.48;63.67;97504.47;2088143;28;20109;-49
2023/05/17 00:58:23;;;;;;;3.55;0.73;;;;;;;18.48;63.90;97504.47;2086164;28;20454;-46
2023/05/17 00:59:25;;;;;;;0.80;0.50;;;;;;;18.48;63.85;97501.78;2086753;28;20525;-47
2023/05/17 01:00:27;;;;;;;2.15;0.88;;;;;;;18.49;63.71;97499.91;2084897;28;20040;-47
2023/05/17 01:01:28;;;;;;;0.77;0.40;;;;;;;18.50;63.56;97501.56;2087396;28;20044;-49
2023/05/17 01:02:29;;;;;;;;;;;;;;;18.40;64.08;97504.78;2086561;28;20714;-48
2023/05/17 01:03:30;;;;;;;1.38;0.30;;;;;;;18.43;64.12;97500.84;2085643;28;20448;-45
2023/05/17 01:04:32;;;;;;;;;;;;;;;18.36;64.24;97503.63;2084662;28;20075;-46
2023/05/17 01:05:32;;;;;;;;;;;;;;;18.29;64.44;97506.38;2087803;28;19970;-47
2023/05/17 01:06:36;;;;;;;1.55;0.40;;;;;;;18.36;64.34;97502.78;2086030;28;20370;-48
2023/05/17 01:07:36;;;;;;;1.35;0.45;;;;;;;18.40;64.37;97506.66;2087011;28;20044;-46
2023/05/17 01:08:38;;;;;;;;;;;;;;;18.35;63.97;97507.34;2086442;28;20048;-47
2023/05/17 01:09:39;;;;;;;2.53;0.47;;;;;;;18.39;64.02;97510.41;2078506;28;19928;-46
2023/05/17 01:10:44;;;;;;;;;;;;;;;18.31;64.28;97508.84;2087708;28;20156;-46
2023/05/17 01:12:00;;;;;;;1.80;0.47;;;;;;;18.36;64.15;97506.31;2084440;28;20103;-46
2023/05/17 01:13:08;;;;;;;1.90;0.40;;;;;;;18.41;63.42;97513.66;2087968;28;20045;-48
2023/05/17 01:14:26;;;;;;;0.50;0.40;;;;;;;18.42;63.73;97516.13;2084906;28;20118;-48
2023/05/17 01:15:31;;;;;;;1.02;0.65;;;;;;;18.44;63.78;97507.81;2086835;28;21065;-48
2023/05/17 01:16:38;;;;;;;1.65;0.40;;;;;;;18.45;63.98;97515.66;2089569;28;20074;-47
2023/05/17 01:17:46;;;;;;;1.77;0.65;;;;;;;18.46;63.63;97517.28;2088958;28;20097;-46
2023/05/17 01:18:55;;;;;;;1.08;0.82;;;;;;;18.44;63.96;97513.19;2088418;28;20053;-48
2023/05/17 01:20:05;;;;;;;1.10;0.60;;;;;;;18.44;63.75;97514.03;2087298;28;20052;-47
2023/05/17 01:21:16;;;;;;;1.52;0.50;;;;;;;18.44;63.78;97507.81;2088061;28;20469;-46
2023/05/17 01:22:27;;;;;;;;;;;;;;;18.35;63.87;97512.72;2088921;28;20051;-47
2023/05/17 01:23:42;;;;;;;0.75;0.50;;;;;;;18.38;64.13;97516.81;2088712;28;19920;-46
2023/05/17 01:24:51;;;;;;;1.30;0.85;;;;;;;18.40;63.95;97509.34;2086116;28;20109;-44
2023/05/17 01:26:04;;;;;;;0.98;0.60;;;;;;;18.41;63.72;97505.59;2090510;28;20069;-46
2023/05/17 01:27:08;;;;;;;0.40;0.40;;;;;;;18.44;63.88;97513.19;2093168;28;20053;-45
2023/05/17 01:28:11;;;;;;;0.75;0.45;;;;;;;18.43;63.75;97509.69;2091609;28;21519;-48
2023/05/17 01:29:15;;;;;;;0.32;0.22;;;;;;;18.45;63.86;97509.47;2089601;28;20040;-46
2023/05/17 01:30:19;;;;;;;0.95;0.50;;;;;;;18.47;63.88;97513.56;2089426;28;20127;-46
2023/05/17 01:31:22;;;;;;;2.58;0.55;;;;;;;18.46;63.66;97508.41;2088061;28;20510;-49
2023/05/17 01:32:24;;;;;;;1.77;1.02;;;;;;;18.46;63.67;97508.41;2089309;28;20058;-48
2023/05/17 01:33:25;;;;;;;1.05;0.40;;;;;;;18.45;63.60;97507.63;2086246;28;20103;-52
2023/05/17 01:34:27;;;;;;;;;;;;;;;18.36;63.96;97514.38;2087725;28;20659;-46
2023/05/17 01:35:28;;;;;;;2.15;0.60;;;;;;;18.39;63.75;97510.41;2087037;28;19956;-47
2023/05/17 01:36:29;;;;;;;;;;;;;;;18.31;63.99;97504.31;2088896;28;20055;-46
2023/05/17 01:37:30;;;;;;;0.50;0.47;;;;;;;18.35;64.14;97510.03;2086489;28;19926;-47
2023/05/17 01:38:31;;;;;;;;;;;;;;;18.30;63.88;97512.56;2088569;28;20540;-49
2023/05/17 01:39:32;;;;;;;0.60;0.40;;;;;;;18.33;64.04;97509.47;2086627;28;19921;-48
2023/05/17 01:40:35;;;;;;;;;;;;;;;18.28;64.06;97512.81;2089371;28;20045;-48
2023/05/17 01:41:39;;;;;;;1.33;0.43;;;;;;;18.33;64.07;97517.50;2087425;28;21506;-47
2023/05/17 01:42:43;;;;;;;1.42;0.93;;;;;;;18.39;63.78;97510.41;2087545;28;20052;-46
2023/05/17 01:43:49;;;;;;;1.90;0.60;;;;;;;18.41;63.79;97511.78;2086663;28;20115;-54
2023/05/17 01:45:00;;;;;;;1.73;0.50;;;;;;;18.43;63.67;97512.38;2089313;28;20063;-49
2023/05/17 01:46:09;;;;;;;0.60;0.47;;;;;;;18.40;63.64;97512.03;2088310;28;20060;-49
2023/05/17 01:47:16;;;;;;;0.57;0.55;;;;;;;18.41;63.81;97506.41;2086643;28;20087;-47
2023/05/17 01:48:22;;;;;;;2.17;0.80;;;;;;;18.41;63.77;97503.72;2089277;28;20253;-46
2023/05/17 01:49:29;;;;;;;2.58;0.30;;;;;;;18.42;63.66;97504.56;2087288;28;20090;-48
2023/05/17 01:50:33;;;;;;;1.10;0.60;;;;;;;18.42;63.33;97500.03;2090096;28;20036;-47
2023/05/17 01:51:44;;;;;;;0.88;0.40;;;;;;;18.42;63.59;97489.28;2086268;28;20410;-48
2023/05/17 01:52:50;;;;;;;0.28;0.28;;;;;;;18.41;63.47;97498.38;2089316;28;20052;-49
2023/05/17 01:53:57;;;;;;;0.80;0.40;;;;;;;18.42;63.60;97499.22;2085893;28;20044;-49
2023/05/17 01:55:05;;;;;;;0.52;0.30;;;;;;;18.42;63.58;97493.84;2086674;28;20102;-48
2023/05/17 01:56:10;;;;;;;1.73;0.57;;;;;;;18.42;63.55;97491.16;2087506;28;20068;-48
2023/05/17 01:57:13;;;;;;;0.80;0.30;;;;;;;18.43;63.39;97496.28;2088674;28;20101;-48
2023/05/17 01:58:20;;;;;;;0.60;0.50;;;;;;;18.42;63.44;97489.28;2085421;28;20075;-46
2023/05/17 01:59:24;;;;;;;0.68;0.47;;;;;;;18.42;63.51;97489.28;2088769;28;20093;-48
2023/05/17 02:00:29;;;;;;;0.60;0.43;;;;;;;18.43;63.57;97487.41;2088742;28;21047;-47
2023/05/17 02:01:32;;;;;;;2.67;0.75;;;;;;;18.42;63.39;97485.78;2084846;28;20132;-46
2023/05/17 02:02:33;;;;;;;0.22;0.22;;;;;;;18.42;63.40;97488.47;2086993;28;20094;-47
2023/05/17 02:03:35;;;;;;;;;;;;;;;18.34;63.83;97494.16;2086847;28;20044;-48
2023/05/17 02:04:35;;;;;;;1.33;0.40;;;;;;;18.36;63.44;97482.16;2085573;28;19928;-46
2023/05/17 02:05:37;;;;;;;0.65;0.30;;;;;;;18.38;63.90;97487.28;2087488;28;20049;-46
2023/05/17 02:06:37;;;;;;;1.88;0.43;;;;;;;18.40;63.54;97490.56;2086422;28;20111;-48
2023/05/17 02:07:39;;;;;;;;;;;;;;;18.32;63.58;97494.38;2086566;28;20107;-46
2023/05/17 02:08:40;;;;;;;1.25;0.20;;;;;;;18.35;63.65;97491.22;2087996;28;20057;-45
2023/05/17 02:09:41;;;;;;;;;;;;;;;18.28;63.79;97493.22;2088166;28;20674;-48
2023/05/17 02:10:42;;;;;;;1.73;0.50;;;;;;;18.32;63.95;97486.31;2086259;28;20429;-47
2023/05/17 02:11:43;;;;;;;;;;;;;;;18.28;63.98;97495.91;2086706;28;20110;-48
2023/05/17 02:12:44;;;;;;;0.52;0.40;;;;;;;18.33;63.88;97490.66;2083998;28;19981;-50
2023/05/17 02:13:47;;;;;;;;;;;;;;;18.26;63.97;97485.38;2085710;28;20065;-51
2023/05/17 02:14:47;;;;;;;1.05;0.22;;;;;;;18.30;63.97;97485.72;2085221;28;19920;-46
2023/05/17 02:15:49;;;;;;;;;;;;;;;18.26;63.94;97484.56;2087905;28;20049;-48
2023/05/17 02:16:49;;;;;;;0.25;0.25;;;;;;;18.30;63.76;97491.09;2087171;28;19924;-47
2023/05/17 02:17:51;;;;;;;;;;;;;;;18.26;63.90;97497.97;2087546;28;20063;-46
2023/05/17 02:18:52;;;;;;;0.52;0.43;;;;;;;18.30;64.03;97491.09;2084667;28;19920;-49
2023/05/17 02:19:53;;;;;;;;;;;;;;;18.24;64.08;97498.19;2086572;28;21779;-48
2023/05/17 02:20:54;;;;;;;0.30;0.30;;;;;;;18.27;64.20;97495.06;2084727;28;19949;-47
2023/05/17 02:21:55;;;;;;;;;;;;;;;18.24;64.11;97508.13;2086851;28;20044;-48
2023/05/17 02:22:56;;;;;;;0.90;0.32;;;;;;;18.28;64.05;97501.25;2087841;28;19924;-46
2023/05/17 02:23:57;;;;;;;;;;;;;;;18.24;64.14;97508.13;2085460;28;20736;-46
2023/05/17 02:24:58;;;;;;;0.50;0.30;;;;;;;18.28;63.78;97502.09;2088465;28;19924;-47
2023/05/17 02:26:00;;;;;;;;;;;;;;;18.24;64.16;97500.06;2086690;28;20103;-46
2023/05/17 02:27:00;;;;;;;1.05;0.22;;;;;;;18.28;63.89;97503.94;2085369;28;19924;-47
2023/05/17 02:28:02;;;;;;;;;;;;;;;18.23;64.11;97503.81;2087246;28;20064;-47
2023/05/17 02:29:04;;;;;;;0.50;0.20;;;;;;;18.28;64.08;97510.13;2086215;28;19924;-46
2023/05/17 02:30:07;;;;;;;1.75;0.43;;;;;;;18.33;63.59;97509.47;2086889;28;20060;-46
2023/05/17 02:31:07;;;;;;;0.60;0.60;;;;;;;18.35;63.71;97511.91;2084782;28;20053;-46
2023/05/17 02:32:09;;;;;;;;;;;;;;;18.26;63.82;97508.72;2086428;28;20095;-46
2023/05/17 02:33:10;;;;;;;0.70;0.50;;;;;;;18.29;63.77;97505.56;2087415;28;20323;-47
2023/05/17 02:34:12;;;;;;;;;;;;;;;18.23;64.10;97506.50;2085579;28;20052;-46
2023/05/17 02:35:12;;;;;;;0.45;0.20;;;;;;;18.29;63.74;97505.56;2086071;28;19928;-47
2023/05/17 02:36:14;;;;;;;;;;;;;;;18.23;64.07;97506.50;2086881;28;20044;-46
2023/05/17 02:37:14;;;;;;;0.70;0.65;;;;;;;18.27;63.85;97507.66;2086507;28;19974;-49
2023/05/17 02:38:16;;;;;;;;;;;;;;;18.22;63.83;97500.31;2087507;28;20048;-46
2023/05/17 02:39:16;;;;;;;1.23;0.43;;;;;;;18.27;64.04;97513.84;2085594;28;19932;-46
2023/05/17 02:40:18;;;;;;;;;;;;;;;18.20;64.13;97509.63;2088057;28;20636;-47
2023/05/17 02:41:19;;;;;;;0.73;0.30;;;;;;;18.25;63.88;97509.78;2085227;28;19982;-47
2023/05/17 02:42:20;;;;;;;0.57;0.25;;;;;;;18.30;63.68;97512.56;2086212;28;20052;-48
2023/05/17 02:43:21;;;;;;;0.43;0.20;;;;;;;18.34;63.47;97512.94;2087836;28;20049;-46
2023/05/17 02:44:24;;;;;;;;;;;;;;;18.24;63.79;97508.94;2087701;28;20048;-46
2023/05/17 02:45:24;;;;;;;1.13;0.77;;;;;;;18.28;63.80;97510.13;2086072;28;19925;-45
2023/05/17 02:46:26;;;;;;;;;;;;;;;18.22;63.83;97511.06;2087421;28;20468;-49
2023/05/17 02:47:26;;;;;;;;;;;;;;;18.18;64.00;97509.03;2088929;28;19997;-47
2023/05/17 02:48:28;;;;;;;0.80;0.40;;;;;;;18.24;63.89;97508.94;2085756;28;19978;-47
2023/05/17 02:49:29;;;;;;;1.20;0.80;;;;;;;18.26;63.70;97506.84;2090324;28;20140;-46
2023/05/17 02:50:30;;;;;;;;;;;;;;;18.22;63.60;97511.06;2089397;28;20458;-48
2023/05/17 02:51:31;;;;;;;0.60;0.20;;;;;;;18.28;63.79;97514.69;2086944;28;19933;-47
2023/05/17 02:52:32;;;;;;;;;;;;;;;18.22;63.94;97510.22;2087293;28;20090;-46
2023/05/17 02:53:33;;;;;;;0.50;0.45;;;;;;;18.27;63.67;97518.41;2085392;28;19970;-48
2023/05/17 02:54:34;;;;;;;;;;;;;;;18.20;64.25;97515.81;2089087;28;20295;-50
2023/05/17 02:55:35;;;;;;;1.17;0.20;;;;;;;18.24;63.79;97508.94;2087917;28;20420;-46
2023/05/17 02:56:36;;;;;;;;;;;;;;;18.19;64.14;97511.50;2090017;28;20053;-49
2023/05/17 02:57:37;;;;;;;0.25;0.20;;;;;;;18.24;63.75;97513.50;2084762;28;19921;-46
2023/05/17 02:58:38;;;;;;;;;;;;;;;18.19;63.94;97516.03;2086546;28;20044;-48
2023/05/17 02:59:40;;;;;;;0.82;0.50;;;;;;;18.25;63.67;97521.31;2087649;28;19925;-48
2023/05/17 03:00:44;;;;;;;0.22;0.20;;;;;;;18.30;63.76;97512.56;2088808;28;20055;-49
2023/05/17 03:01:45;;;;;;;0.95;0.38;;;;;;;18.31;63.59;97514.22;2084591;28;20053;-48
2023/05/17 03:02:46;;;;;;;;;;;;;;;18.23;63.69;97515.34;2087616;28;20098;-47
2023/05/17 03:03:47;;;;;;;2.38;0.25;;;;;;;18.25;63.75;97505.22;2085959;28;19985;-48
2023/05/17 03:04:49;;;;;;;;;;;;;;;18.19;63.97;97511.50;2088656;28;20102;-47
2023/05/17 03:05:49;;;;;;;0.30;0.20;;;;;;;18.24;63.82;97513.50;2085344;28;19974;-49
2023/05/17 03:06:51;;;;;;;;;;;;;;;18.19;63.99;97510.66;2088064;28;23600;-48
2023/05/17 03:07:52;;;;;;;0.13;0.10;;;;;;;18.24;63.87;97510.81;2088626;28;19924;-48
2023/05/17 03:08:53;;;;;;;;;;;;;;;18.19;63.87;97507.97;2086690;28;20094;-44
2023/05/17 03:09:54;;;;;;;0.93;0.10;;;;;;;18.24;63.63;97510.81;2087477;28;19924;-52
2023/05/17 03:10:55;;;;;;;;;;;;;;;18.19;63.87;97510.66;2086948;28;20048;-49
2023/05/17 03:11:56;;;;;;;1.95;0.50;;;;;;;18.23;63.82;97511.88;2087435;28;20457;-49
2023/05/17 03:12:57;;;;;;;;;;;;;;;18.18;63.82;97519.78;2085640;28;20056;-48
2023/05/17 03:13:58;;;;;;;0.43;0.30;;;;;;;18.23;63.84;97520.72;2086304;28;19993;-46
2023/05/17 03:15:01;;;;;;;;;;;;;;;18.17;64.01;97518.97;2088297;28;20097;-50
2023/05/17 03:16:01;;;;;;;0.88;0.20;;;;;;;18.25;63.68;97520.53;2087945;28;19965;-47
2023/05/17 03:17:03;;;;;;;;;;;;;;;18.18;63.64;97525.16;2087375;28;20391;-45
2023/05/17 03:18:04;;;;;;;0.30;0.20;;;;;;;18.23;64.02;97525.28;2084660;28;21612;-48
2023/05/17 03:19:05;;;;;;;0.68;0.30;;;;;;;18.25;63.65;97526.69;2088586;28;20052;-48
2023/05/17 03:20:07;;;;;;;0.47;0.30;;;;;;;18.30;63.42;97526.00;2086224;28;20110;-50
2023/05/17 03:21:09;;;;;;;0.65;0.43;;;;;;;18.29;63.69;97527.06;2084922;28;20140;-49
2023/05/17 03:22:10;;;;;;;0.90;0.20;;;;;;;18.32;63.51;97531.97;2086050;28;20056;-46
2023/05/17 03:23:11;;;;;;;;;;;;;;;18.23;64.01;97533.34;2088292;28;20576;-45
2023/05/17 03:24:12;;;;;;;1.08;0.25;;;;;;;18.25;63.57;97525.88;2088522;28;19920;-50
2023/05/17 03:25:13;;;;;;;;;;;;;;;18.19;63.83;97522.25;2087232;28;20045;-49
2023/05/17 03:26:14;;;;;;;0.30;0.30;;;;;;;18.22;63.84;97529.00;2087045;28;20009;-47
2023/05/17 03:27:15;;;;;;;;;;;;;;;18.18;63.70;97533.19;2087489;28;20868;-46
2023/05/17 03:28:16;;;;;;;0.57;0.20;;;;;;;18.24;63.75;97538.47;2086010;28;19920;-47
2023/05/17 03:29:17;;;;;;;;;;;;;;;18.18;64.00;97535.88;2086852;28;20552;-49
2023/05/17 03:30:19;;;;;;;0.40;0.22;;;;;;;18.23;63.60;97536.03;2087354;28;19920;-48
2023/05/17 03:31:21;;;;;;;0.60;0.38;;;;;;;18.26;63.59;97538.25;2084556;28;20163;-48
2023/05/17 03:32:22;;;;;;;0.55;0.30;;;;;;;18.31;63.43;97535.69;2085913;28;20105;-49
2023/05/17 03:33:23;;;;;;;;;;;;;;;18.20;63.87;97544.53;2089471;28;20102;-45
2023/05/17 03:34:24;;;;;;;0.25;0.10;;;;;;;18.25;63.76;97550.03;2087701;28;19924;-49
2023/05/17 03:35:26;;;;;;;0.77;0.45;;;;;;;18.28;63.61;97546.91;2087867;28;20099;-49
2023/05/17 03:36:28;;;;;;;0.35;0.22;;;;;;;18.29;63.61;97548.53;2085525;28;20052;-47
2023/05/17 03:37:28;;;;;;;0.70;0.20;;;;;;;18.30;63.46;97545.63;2087268;28;20561;-46
2023/05/17 03:38:30;;;;;;;;;;;;;;;18.24;63.56;97559.13;2089603;28;20053;-45
2023/05/17 03:39:30;;;;;;;0.80;0.20;;;;;;;18.24;63.54;97553.75;2089115;28;19924;-47
2023/05/17 03:40:32;;;;;;;;;;;;;;;18.19;63.70;97558.97;2087812;28;20098;-46
2023/05/17 03:41:33;;;;;;;0.38;0.35;;;;;;;18.21;63.81;97555.03;2090825;28;19924;-49
2023/05/17 03:42:35;;;;;;;2.03;0.20;;;;;;;18.26;63.66;97571.28;2089013;28;20117;-51
2023/05/17 03:43:36;;;;;;;0.30;0.30;;;;;;;18.27;63.53;97558.66;2087679;28;20063;-45
2023/05/17 03:44:37;;;;;;;;;;;;;;;18.20;63.61;97561.44;2088630;28;20423;-50
2023/05/17 03:45:40;;;;;;;1.70;0.25;;;;;;;18.22;63.40;97564.72;2089643;28;19989;-46
2023/05/17 03:46:41;;;;;;;0.40;0.22;;;;;;;18.26;63.43;97557.84;2087558;28;20075;-44
2023/05/17 03:47:42;;;;;;;1.30;0.28;;;;;;;18.29;63.53;97570.00;2089198;28;20507;-49
2023/05/17 03:48:43;;;;;;;;;;;;;;;18.20;63.78;97571.38;2087650;28;20044;-45
2023/05/17 03:49:44;;;;;;;0.30;0.20;;;;;;;18.22;63.46;97567.41;2086587;28;19974;-47
2023/05/17 03:50:45;;;;;;;;;;;;;;;18.15;63.77;97566.66;2086148;28;20048;-49
2023/05/17 03:51:46;;;;;;;0.25;0.20;;;;;;;18.22;63.60;97574.63;2087005;28;19921;-47
2023/05/17 03:52:48;;;;;;;1.30;0.20;;;;;;;18.26;63.58;97570.44;2076238;28;20379;-51
2023/05/17 03:53:56;;;;;;;0.15;0.13;;;;;;;18.27;63.30;97574.75;2084260;28;20045;-47
2023/05/17 03:54:57;;;;;;;1.08;0.20;;;;;;;18.29;63.50;97575.38;2085559;28;20052;-47
2023/05/17 03:55:58;;;;;;;0.45;0.30;;;;;;;18.29;63.32;97578.06;2086620;28;20044;-47
2023/05/17 03:56:59;;;;;;;;;;;;;;;18.19;63.53;97575.91;2085609;28;20110;-50
2023/05/17 03:58:00;;;;;;;0.57;0.13;;;;;;;18.22;63.49;97578.16;2087075;28;19978;-51
2023/05/17 03:59:02;;;;;;;;;;;;;;;18.16;63.80;97580.91;2083508;28;20052;-48
2023/05/17 04:00:05;;;;;;;0.32;0.20;;;;;;;18.22;63.58;97590.72;2085228;28;20011;-47
2023/05/17 04:01:08;;;;;;;0.88;0.28;;;;;;;18.26;63.50;97583.88;2085168;28;20584;-49
2023/05/17 04:02:09;;;;;;;0.20;0.20;;;;;;;18.22;63.42;97575.47;2084270;28;20045;-47
2023/05/17 04:03:11;;;;;;;;;;;;;;;18.17;63.48;97583.38;2085089;28;20052;-48
2023/05/17 04:05:32;;;;;;;0.55;0.55;;;;;;;18.23;63.25;97587.00;2088086;28;20581;-49
2023/05/17 04:06:33;;;;;;;0.82;0.17;;;;;;;18.27;63.20;97599.72;2084205;28;20041;-47
2023/05/17 04:07:34;;;;;;;;;;;;;;;18.20;63.35;97587.47;2085573;28;20049;-50
2023/05/17 04:08:35;;;;;;;0.30;0.10;;;;;;;18.21;63.57;97589.91;2086605;28;19944;-46
2023/05/17 04:09:36;;;;;;;;;;;;;;;18.16;63.62;97597.00;2086041;28;20049;-51
2023/05/17 04:10:40;;;;;;;0.47;0.40;;;;;;;18.17;63.62;97587.94;2086144;28;20354;-48
2023/05/17 04:11:42;;;;;;;0.10;0.05;;;;;;;18.21;63.59;97597.97;2082241;28;20866;-51
2023/05/17 04:12:43;;;;;;;1.25;0.30;;;;;;;18.24;63.24;97597.50;2083826;28;20542;-45
2023/05/17 04:13:44;;;;;;;;;;;;;;;18.18;63.46;97597.59;2087210;28;20060;-47
2023/05/17 04:14:45;;;;;;;0.20;0.15;;;;;;;18.20;63.61;97603.56;2084996;28;19969;-45
2023/05/17 04:15:46;;;;;;;0.15;0.10;;;;;;;18.22;63.47;97594.25;2085152;28;20109;-47
2023/05/17 04:16:50;;;;;;;0.13;0.10;;;;;;;18.26;63.28;97594.59;2089232;28;20052;-47
2023/05/17 04:17:50;;;;;;;1.13;0.30;;;;;;;18.25;63.41;97593.78;2086181;28;20048;-47
2023/05/17 04:18:52;;;;;;;;;;;;;;;18.17;63.44;97599.47;2083720;28;20545;-47
2023/05/17 04:19:53;;;;;;;0.22;0.10;;;;;;;18.21;63.48;97597.16;2086375;28;19920;-45
2023/05/17 04:20:55;;;;;;;;;;;;;;;18.14;63.29;97597.25;2085476;28;20045;-46
2023/05/17 04:21:55;;;;;;;0.15;0.15;;;;;;;18.19;63.78;97601.91;2084736;28;19928;-49
2023/05/17 04:22:57;;;;;;;;;;;;;;;18.13;63.42;97595.59;2087992;28;20109;-51
2023/05/17 04:23:57;;;;;;;0.32;0.20;;;;;;;18.18;63.67;97603.78;2086924;28;19992;-48
2023/05/17 04:24:59;;;;;;;;;;;;;;;18.09;63.94;97599.78;2089911;28;20048;-46
2023/05/17 04:25:59;;;;;;;0.10;0.10;;;;;;;18.14;63.70;97605.28;2085554;28;19921;-49
2023/05/17 04:27:03;;;;;;;;;;;;;;;18.09;63.89;97603.28;2087038;28;20783;-48
2023/05/17 04:28:04;;;;;;;1.48;0.40;;;;;;;18.15;63.70;97601.56;2087166;28;19924;-50
2023/05/17 04:29:06;;;;;;;;;;;;;;;18.11;63.80;97604.91;2087004;28;20052;-45
2023/05/17 04:30:08;;;;;;;1.17;0.45;;;;;;;18.16;63.50;97600.50;2085197;28;19948;-47
2023/05/17 04:31:10;;;;;;;0.43;0.20;;;;;;;18.22;63.51;97606.81;2086009;28;20041;-48
2023/05/17 04:32:13;;;;;;;0.20;0.17;;;;;;;18.25;63.41;97598.34;2085876;28;20104;-49
2023/05/17 04:33:14;;;;;;;1.05;0.20;;;;;;;18.24;63.33;97605.56;2087840;28;20053;-47
2023/05/17 04:34:15;;;;;;;0.20;0.17;;;;;;;18.26;63.10;97613.41;2089340;28;20061;-45
2023/05/17 04:35:17;;;;;;;;;;;;;;;18.16;63.64;97608.56;2087660;28;20611;-48
2023/05/17 04:36:17;;;;;;;;;;;;;;;18.11;63.64;97612.94;2083456;28;19925;-47
2023/05/17 04:37:19;;;;;;;0.47;0.20;;;;;;;18.16;63.47;97613.91;2083504;28;20005;-46
2023/05/17 04:38:20;;;;;;;0.77;0.10;;;;;;;18.20;63.27;97608.94;2085799;28;20062;-48
2023/05/17 04:39:22;;;;;;;;;;;;;;;18.12;63.54;97611.94;2088839;28;20053;-46
2023/05/17 04:40:22;;;;;;;;;;;;;;;18.07;63.85;97617.97;2086628;28;19925;-46
2023/05/17 04:41:24;;;;;;;0.47;0.10;;;;;;;18.11;63.64;97615.63;2084284;28;20916;-48
2023/05/17 04:42:25;;;;;;;1.67;0.30;;;;;;;18.18;63.40;97621.75;2088353;28;20044;-50
2023/05/17 04:43:26;;;;;;;;;;;;;;;18.11;63.89;97616.47;2084147;28;20156;-45
2023/05/17 04:44:27;;;;;;;;;;;;;;;18.06;63.82;97622.50;2083249;28;20022;-49
2023/05/17 04:45:28;;;;;;;0.00;0.00;;;;;;;18.11;63.57;97627.22;2086275;28;19924;-48
2023/05/17 04:46:29;;;;;;;1.27;0.20;;;;;;;18.16;63.49;97629.22;2085735;28;20610;-45
2023/05/17 04:47:32;;;;;;;;;;;;;;;18.11;63.27;97631.75;2087966;28;20048;-47
2023/05/17 04:48:33;;;;;;;0.73;0.47;;;;;;;18.16;63.51;97635.38;2086194;28;20505;-49
2023/05/17 04:49:34;;;;;;;;;;;;;;;18.10;63.69;97636.28;2087343;28;20094;-48
2023/05/17 04:50:35;;;;;;;0.55;0.10;;;;;;;18.16;63.77;97639.94;2090068;28;19924;-48
2023/05/17 04:51:36;;;;;;;;;;;;;;;18.10;63.54;97644.34;2086613;28;20055;-50
2023/05/17 04:52:37;;;;;;;0.32;0.10;;;;;;;18.15;63.44;97638.31;2087217;28;19960;-50
2023/05/17 04:53:39;;;;;;;;;;;;;;;18.08;63.75;97639.22;2088620;28;20517;-46
2023/05/17 04:54:39;;;;;;;0.08;0.08;;;;;;;18.15;63.68;97643.69;2087209;28;19935;-46
2023/05/17 04:55:41;;;;;;;;;;;;;;;18.08;63.74;97647.28;2085850;28;20123;-50
2023/05/17 04:56:41;;;;;;;0.28;0.10;;;;;;;18.11;63.65;97646.00;2086191;28;20625;-46
2023/05/17 04:57:43;;;;;;;0.55;0.55;;;;;;;18.18;63.45;97648.59;2086642;28;20118;-48
2023/05/17 04:58:44;;;;;;;0.57;0.20;;;;;;;18.20;63.34;97651.88;2086878;28;20037;-48
2023/05/17 04:59:45;;;;;;;;;;;;;;;18.14;63.59;97663.53;2085822;28;20254;-49
2023/05/17 05:00:46;;;;;;;0.20;0.20;;;;;;;18.15;63.44;97657.09;2089707;28;19985;-47
2023/05/17 05:01:47;;;;;;;0.20;0.10;;;;;;;18.19;63.62;97658.28;2086471;28;20062;-54